createdAt,value
2022-11-09T00:05:34.743Z,20.13
2022-11-09T00:15:39.465Z,20.47
2022-11-09T00:25:41.474Z,21.23
2022-11-09T00:35:43.691Z,23.30
2022-11-09T00:45:47.545Z,25.40
2022-11-09T00:56:02.404Z,22.63
2022-11-09T01:06:06.585Z,21.70
2022-11-09T01:16:19.785Z,29.30
2022-11-09T01:26:25.493Z,25.67
2022-11-09T01:36:30.802Z,24.57
2022-11-09T01:46:50.909Z,27.63
2022-11-09T01:56:56.769Z,27.90
2022-11-09T02:07:00.929Z,26.87
2022-11-09T02:17:05.979Z,26.60
2022-11-09T02:27:16.404Z,30.23
2022-11-09T02:37:40.541Z,30.57
2022-11-09T02:47:46.082Z,29.27
2022-11-09T02:57:51.679Z,30.03
2022-11-09T03:08:02.696Z,28.50
2022-11-09T03:18:11.895Z,31.17
2022-11-09T03:28:20.047Z,34.23
2022-11-09T03:38:24.605Z,30.03
2022-11-09T03:48:34.402Z,29.43
2022-11-09T03:58:38.669Z,33.53
2022-11-09T04:09:01.593Z,30.07
2022-11-09T04:19:03.698Z,31.60
2022-11-09T04:29:07.266Z,35.50
2022-11-09T04:39:16.557Z,34.03
2022-11-09T04:49:25.665Z,35.77
2022-11-09T04:59:32.880Z,33.60
2022-11-09T05:09:35.820Z,36.47
2022-11-09T05:19:39.144Z,37.70
2022-11-09T05:29:44.842Z,34.17
2022-11-09T05:39:51.907Z,37.60
2022-11-09T05:49:54.261Z,30.87
2022-11-09T06:00:00.090Z,34.20
2022-11-09T06:10:07.448Z,36.63
2022-11-09T06:20:15.939Z,38.90
2022-11-09T06:30:17.989Z,36.67
2022-11-09T06:40:24.005Z,35.80
2022-11-09T06:50:31.546Z,37.20
2022-11-09T07:00:41.019Z,38.47
2022-11-09T07:10:47.110Z,37.20
2022-11-09T07:20:51.668Z,34.03
2022-11-09T07:30:53.887Z,36.03
2022-11-09T07:41:00.547Z,37.17
2022-11-09T07:51:04.434Z,38.30
2022-11-09T08:01:10.432Z,35.03
2022-11-09T08:11:12.641Z,33.03
2022-11-09T08:21:17.087Z,37.67
2022-11-09T08:31:21.827Z,35.47
2022-11-09T08:41:26.951Z,34.00
2022-11-09T08:51:29.156Z,30.07
2022-11-09T09:01:31.280Z,34.83
2022-11-09T09:11:33.376Z,30.77
2022-11-09T09:21:35.375Z,32.93
2022-11-09T09:31:37.573Z,30.30
2022-11-09T09:41:47.517Z,30.90
2022-11-09T09:51:55.470Z,31.60
2022-11-09T10:01:58.690Z,27.67
2022-11-09T10:12:05.670Z,31.67
2022-11-09T10:22:17.592Z,36.30
2022-11-09T10:32:24.775Z,34.83
2022-11-09T10:42:32.539Z,27.63
2022-11-09T10:53:18.617Z,32.97
2022-11-09T11:03:42.704Z,28.05
2022-11-09T11:14:22.696Z,31.55
2022-11-09T11:24:52.994Z,29.38
2022-11-09T11:35:17.075Z,29.13
2022-11-09T11:45:50.010Z,32.40
2022-11-09T11:56:39.184Z,29.20
2022-11-09T12:07:12.239Z,29.52
2022-11-09T12:17:55.204Z,30.38
2022-11-09T12:28:40.453Z,27.98
2022-11-09T12:39:07.542Z,28.45
2022-11-09T12:49:42.040Z,25.95
2022-11-09T13:00:03.342Z,28.98
2022-11-09T13:10:35.711Z,23.88
2022-11-09T13:20:57.611Z,22.20
2022-11-09T13:31:57.121Z,24.27
2022-11-09T13:42:33.809Z,25.55
2022-11-09T13:52:58.101Z,25.17
2022-11-09T14:03:23.148Z,25.58
2022-11-09T14:14:02.205Z,25.00
2022-11-09T14:24:35.180Z,25.55
2022-11-09T14:35:22.493Z,25.00
2022-11-09T14:45:53.468Z,26.10
2022-11-09T14:56:23.173Z,27.50
2022-11-09T15:07:18.028Z,32.45
2022-11-09T15:17:40.373Z,26.73
2022-11-09T15:28:08.960Z,29.15
2022-11-09T15:38:42.774Z,29.05
2022-11-09T15:49:15.737Z,29.90
2022-11-09T15:59:36.583Z,30.80
2022-11-09T16:09:59.540Z,30.85
2022-11-09T16:20:26.557Z,29.73
2022-11-09T16:30:47.597Z,32.08
2022-11-09T16:41:11.951Z,33.00
2022-11-09T16:51:40.360Z,30.25
2022-11-09T17:02:01.554Z,32.60
2022-11-09T17:12:22.449Z,33.83
2022-11-09T17:22:46.240Z,31.80
2022-11-09T17:33:09.593Z,30.23
2022-11-09T17:43:37.682Z,36.90
2022-11-09T17:53:58.450Z,34.65
2022-11-09T18:04:19.350Z,37.10
2022-11-09T18:14:41.883Z,31.23
2022-11-09T18:25:02.399Z,33.63
2022-11-09T18:35:23.599Z,31.55
2022-11-09T18:45:56.561Z,36.15
2022-11-09T18:56:26.814Z,34.60
2022-11-09T19:06:48.839Z,35.05
2022-11-09T19:17:15.730Z,31.42
2022-11-09T19:27:37.689Z,35.73
2022-11-09T19:38:03.680Z,38.00
2022-11-09T19:48:29.276Z,37.13
2022-11-09T19:58:51.724Z,35.97
2022-11-09T20:09:13.237Z,37.50
2022-11-09T20:19:33.771Z,35.10
2022-11-09T20:29:55.886Z,39.03
2022-11-09T20:40:16.929Z,50.77
2022-11-09T20:50:38.223Z,37.43
2022-11-09T21:01:12.271Z,38.90
2022-11-09T21:11:56.350Z,37.67
2022-11-09T21:22:24.618Z,37.37
2022-11-09T21:32:45.383Z,42.28
2022-11-09T21:43:14.172Z,38.63
2022-11-09T21:53:41.203Z,40.43
2022-11-09T22:04:04.352Z,36.83
2022-11-09T22:14:44.106Z,40.93
2022-11-09T22:25:13.843Z,48.87
2022-11-09T22:35:34.792Z,42.70
2022-11-09T22:46:06.299Z,33.43
2022-11-09T22:56:31.988Z,43.37
2022-11-09T23:06:52.884Z,42.30
2022-11-09T23:17:39.028Z,40.20
2022-11-09T23:28:03.366Z,40.40
2022-11-09T23:38:32.032Z,61.93
2022-11-09T23:48:53.262Z,40.10
2022-11-09T23:59:14.235Z,39.53
